Arklow Vale — PCZV — position and weather

sailwx.info

Track history (hours):
 
Tides and Currents Weather Stations Pressure Air Temp Water Temp Dewpoint Dewpoint Depression Visibility Wind Speed Wind Dir Waves Ship Positions

Arklow Vale

Last reported at 2017-Oct-17 09:21 UTC. Time now 2017-Oct-17 18:58 UTC.
Position N 54°37' W 005°54'.

Length 87 m; draft 5.9 m.

Type: Cargo ship. MMSI: 244750645.

Date/timePositionNaut miles runAvg speedWind from/ knotsBaromVisibWave heightAir tempDewpointWater temp
2017-Oct-17 09:21N 54°37' W 005°54'0 0.0
2017-Oct-17 01:15N 54°37' W 005°54'0 0.0
2017-Oct-17 00:39N 54°37' W 005°54'0 0.0
2017-Oct-17 00:15N 54°37' W 005°54'0 0.0
2017-Oct-16 22:27N 54°37' W 005°54'0 0.0
2017-Oct-16 12:27N 54°37' W 005°54'0 0.0
2017-Oct-16 06:27N 54°37' W 005°54'0 0.0
2017-Oct-16 04:03N 54°37' W 005°54'0 0.0
2017-Oct-16 03:51N 54°37' W 005°54'0 0.0
2017-Oct-16 03:27N 54°37' W 005°54'0 0.0
2017-Oct-16 01:09N 54°37' W 005°54'0 0.0
2017-Oct-15 16:21N 54°37' W 005°54'0 0.0
2017-Oct-15 15:57N 54°37' W 005°54'0 0.0
2017-Oct-15 13:09N 54°37' W 005°54'0 0.0
2017-Oct-15 12:57N 54°37' W 005°54'0 0.0
2017-Oct-15 12:27N 54°37' W 005°54'0 0.0
2017-Oct-15 11:45N 54°37' W 005°54'0 0.0
2017-Oct-15 11:27N 54°37' W 005°54'0 0.0
2017-Oct-15 09:09N 54°37' W 005°54'0 0.0
2017-Oct-15 08:57N 54°37' W 005°54'0 0.0
2017-Oct-15 08:29N 54°37' W 005°54'0 0.2
2017-Oct-15 08:00N 54°37' W 005°54'4 7.8
2017-Oct-15 07:30N 54°40' W 005°50'510.1
2017-Oct-15 07:00N 54°43' W 005°43'3 5.3
2017-Oct-15 06:30N 54°45' W 005°40'4 8.0
2017-Oct-15 06:00N 54°49' W 005°39'4 8.4
2017-Oct-15 05:30N 54°53' W 005°40'4 8.9
2017-Oct-15 05:00N 54°57' W 005°42'1210.3
2017-Oct-15 03:52N 55°08' W 005°52'411.2
2017-Oct-15 03:30N 55°11' W 005°56'510.8
2017-Oct-15 03:00N 55°16' W 006°01'510.1
2017-Oct-15 02:30N 55°20' W 006°06'5 9.6
2017-Oct-15 02:00N 55°22' W 006°13'5 9.9
2017-Oct-15 01:30N 55°25' W 006°20'611.1
2017-Oct-15 01:00N 55°29' W 006°26'510.2
2017-Oct-15 00:30N 55°34' W 006°31'5 9.6
2017-Oct-15 00:00N 55°38' W 006°35'4 8.9
2017-Oct-14 23:30N 55°42' W 006°39'5 9.1
2017-Oct-14 23:00N 55°46' W 006°43'5 9.5
2017-Oct-14 22:30N 55°50' W 006°48'5 9.6
2017-Oct-14 22:00N 55°53' W 006°54'186 8.2
2017-Oct-13 23:24N 58°40' W 004°22'4 8.8
2017-Oct-13 22:59N 58°41' W 004°15'4 9.1
2017-Oct-13 22:30N 58°41' W 004°06'5 9.7
2017-Oct-13 22:00N 58°41' W 003°57'5 9.6
2017-Oct-13 21:30N 58°42' W 003°48'510.3
2017-Oct-13 21:00N 58°42' W 003°38'510.9
2017-Oct-13 20:30N 58°42' W 003°27'611.8
2017-Oct-13 20:00N 58°43' W 003°16'612.8
2017-Oct-13 19:30N 58°43' W 003°04'713.2
2017-Oct-13 19:00N 58°43' W 002°51'510.3
2017-Oct-13 18:30N 58°42' W 002°41'267 8.9
2017-Oct-12 12:29N 58°04' E 005°44'4 8.3
2017-Oct-12 12:00N 58°04' E 005°51'4 8.4
2017-Oct-12 11:30N 58°04' E 005°59'5 9.1
2017-Oct-12 11:00N 58°02' E 006°07'5 9.4
2017-Oct-12 10:30N 57°60' E 006°15'4 9.1
2017-Oct-12 10:00N 57°58' E 006°22'4 8.6
2017-Oct-12 09:30N 57°56' E 006°30'4 8.4
2017-Oct-12 09:00N 57°56' E 006°38'4 8.6
2017-Oct-12 08:30N 57°56' E 006°46'4 8.9
2017-Oct-12 08:00N 57°56' E 006°54'5 9.1
2017-Oct-12 07:30N 57°56' E 007°03'5 9.7
2017-Oct-12 07:00N 57°55' E 007°12'5 9.7
2017-Oct-12 06:30N 57°55' E 007°21'5 9.5
2017-Oct-12 06:00N 57°54' E 007°30'5 9.3
2017-Oct-12 05:30N 57°55' E 007°39'5 9.4
2017-Oct-12 05:00N 57°56' E 007°47'5 9.5
2017-Oct-12 04:30N 57°58' E 007°56'5 9.4
2017-Oct-12 04:00N 57°60' E 008°04'5 9.4
2017-Oct-12 03:30N 58°02' E 008°12'5 9.5
2017-Oct-12 03:00N 58°04' E 008°19'5 9.1
2017-Oct-12 02:30N 58°07' E 008°25'5 9.5
2017-Oct-12 02:00N 58°11' E 008°32'5 9.3
2017-Oct-12 01:30N 58°14' E 008°39'5 9.1
2017-Oct-12 01:00N 58°17' E 008°45'5 9.4
2017-Oct-12 00:30N 58°20' E 008°52'5 9.2
2017-Oct-12 00:00N 58°23' E 008°59'5 9.7
2017-Oct-11 23:30N 58°27' E 009°05'510.7
2017-Oct-11 23:00N 58°31' E 009°11'611.1
2017-Oct-11 22:30N 58°35' E 009°18'611.4
2017-Oct-11 22:00N 58°39' E 009°25'611.4
2017-Oct-11 21:30N 58°44' E 009°32'611.3
2017-Oct-11 21:00N 58°48' E 009°38'611.2
2017-Oct-11 20:30N 58°53' E 009°44'611.0
2017-Oct-11 20:00N 58°58' E 009°47'4 8.8
2017-Oct-11 19:30N 59°02' E 009°43'4 8.8
2017-Oct-11 19:00N 59°06' E 009°38'1 2.6
2017-Oct-11 18:30N 59°07' E 009°37'0 0.0
2017-Oct-11 18:00N 59°07' E 009°37'0 0.0
2017-Oct-11 17:30N 59°07' E 009°37'0 0.0
2017-Oct-11 17:00N 59°07' E 009°37'0 0.0
2017-Oct-11 00:00N 59°07' E 009°37'0 0.0
2017-Oct-10 23:30N 59°07' E 009°37'0 0.0
2017-Oct-10 23:00N 59°07' E 009°37'0 0.0
2017-Oct-10 22:29N 59°07' E 009°37'0 0.0
2017-Oct-10 22:00N 59°07' E 009°37'0 0.0
2017-Oct-10 21:30N 59°07' E 009°37'0 0.0
2017-Oct-10 21:00N 59°07' E 009°37'0 0.0
2017-Oct-10 20:30N 59°07' E 009°37'0 0.0
2017-Oct-10 20:00N 59°07' E 009°37'0 0.0
2017-Oct-10 19:30N 59°07' E 009°37'0 0.0
2017-Oct-10 19:00N 59°07' E 009°37'0 0.0
2017-Oct-10 18:29N 59°07' E 009°37'0 0.0
2017-Oct-10 18:00N 59°07' E 009°37'0 0.0
2017-Oct-10 17:30N 59°07' E 009°37'0 0.0
2017-Oct-10 16:59N 59°07' E 009°37'0 0.2
2017-Oct-10 16:30N 59°07' E 009°37'0 0.0
2017-Oct-10 16:00N 59°07' E 009°37'0 0.0
2017-Oct-10 15:30N 59°07' E 009°37'0 0.0
2017-Oct-10 14:59N 59°07' E 009°37'0 0.0
2017-Oct-10 14:00N 59°07' E 009°37'0 0.0
2017-Oct-10 13:30N 59°07' E 009°37'0 0.0
2017-Oct-10 13:00N 59°07' E 009°37'0 0.0
2017-Oct-10 12:30N 59°07' E 009°37'0 0.0
2017-Oct-10 12:00N 59°07' E 009°37'0 0.0
2017-Oct-10 11:30N 59°07' E 009°37'0 0.0
2017-Oct-10 11:00N 59°07' E 009°37'0 0.0
2017-Oct-10 10:30N 59°07' E 009°37'0 0.0
2017-Oct-10 10:00N 59°07' E 009°37'0 0.0
2017-Oct-10 09:30N 59°07' E 009°37'0 0.0
2017-Oct-10 09:00N 59°07' E 009°37'0 0.0
2017-Oct-10 08:29N 59°07' E 009°37'0 0.0
2017-Oct-10 08:00N 59°07' E 009°37'0 0.0
2017-Oct-10 07:29N 59°07' E 009°37'0 0.0
2017-Oct-10 07:00N 59°07' E 009°37'0 0.0
2017-Oct-10 06:30N 59°07' E 009°37'0 0.0
2017-Oct-10 05:59N 59°07' E 009°37'0 0.0
2017-Oct-10 05:30N 59°07' E 009°37'0 0.0
2017-Oct-10 04:57N 59°07' E 009°37'0 0.0
2017-Oct-10 04:30N 59°07' E 009°37'0 0.0
2017-Oct-10 04:00N 59°07' E 009°37'0 0.0
2017-Oct-10 03:30N 59°07' E 009°37'0 0.0
2017-Oct-10 03:00N 59°07' E 009°37'0 0.0
2017-Oct-10 02:30N 59°07' E 009°37'0 0.0
2017-Oct-10 02:00N 59°07' E 009°37'0 0.0
2017-Oct-10 01:30N 59°07' E 009°37'0 0.0
2017-Oct-10 01:00N 59°07' E 009°37'0 0.0
2017-Oct-10 00:30N 59°07' E 009°37'0 0.0
2017-Oct-10 00:00N 59°07' E 009°37'0 0.0
2017-Oct-09 23:30N 59°07' E 009°37'0 0.0
2017-Oct-09 23:00N 59°07' E 009°37'0 0.0
2017-Oct-09 22:30N 59°07' E 009°37'0 0.0
2017-Oct-09 22:00N 59°07' E 009°37'0 0.0
2017-Oct-09 21:30N 59°07' E 009°37'0 0.0
2017-Oct-09 21:00N 59°07' E 009°37'0 0.0
2017-Oct-09 20:30N 59°07' E 009°37'0 0.0
2017-Oct-09 19:59N 59°07' E 009°37'0 0.0
2017-Oct-09 19:30N 59°07' E 009°37'0 0.0
2017-Oct-09 19:00N 59°07' E 009°37'0 0.0
2017-Oct-09 18:30N 59°07' E 009°37'0 0.0
2017-Oct-09 18:00N 59°07' E 009°37'0 0.0
2017-Oct-09 17:30N 59°07' E 009°37'0 0.0
2017-Oct-09 17:00N 59°07' E 009°37'0 0.0
2017-Oct-09 16:30N 59°07' E 009°37'0 0.0
2017-Oct-09 16:00N 59°07' E 009°37'0 0.0
2017-Oct-09 15:30N 59°07' E 009°37'0 0.0
2017-Oct-09 14:59N 59°07' E 009°37'0 0.0
2017-Oct-09 14:30N 59°07' E 009°37'0 0.0
2017-Oct-09 14:00N 59°07' E 009°37'0 0.0
2017-Oct-09 13:30N 59°07' E 009°37'2 4.9
2017-Oct-09 13:00N 59°05' E 009°38'4 9.1
2017-Oct-09 12:30N 59°02' E 009°44'510.1
2017-Oct-09 11:59N 58°57' E 009°47'612.8
2017-Oct-09 11:30N 58°51' E 009°41'713.2
2017-Oct-09 11:00N 58°46' E 009°33'612.6
2017-Oct-09 10:29N 58°41' E 009°26'611.8
2017-Oct-09 10:00N 58°36' E 009°21'611.2
2017-Oct-09 09:30N 58°31' E 009°15'511.0
2017-Oct-09 09:00N 58°26' E 009°10'611.8
2017-Oct-09 08:30N 58°21' E 009°04'611.6
2017-Oct-09 08:00N 58°17' E 008°58'611.6
2017-Oct-09 07:30N 58°12' E 008°51'611.5
2017-Oct-09 07:00N 58°08' E 008°44'611.5
2017-Oct-09 06:30N 58°03' E 008°39'611.9
2017-Oct-09 06:00N 57°57' E 008°35'4312.7
2017-Oct-09 02:38N 57°17' E 008°06'212.5
2017-Oct-09 02:29N 57°16' E 008°04'612.5
2017-Oct-09 01:59N 57°10' E 008°00'612.3
2017-Oct-09 01:28N 57°04' E 007°56'612.3
2017-Oct-09 01:00N 56°59' E 007°52'25811.7
2017-Oct-08 03:00N 53°08' E 004°28'511.2
2017-Oct-08 02:30N 53°03' E 004°23'510.9
2017-Oct-08 02:00N 52°59' E 004°19'510.7
2017-Oct-08 01:30N 52°54' E 004°15'510.6
2017-Oct-08 01:00N 52°49' E 004°11'510.9
2017-Oct-08 00:30N 52°45' E 004°05'510.8
2017-Oct-08 00:00N 52°41' E 003°59'5410.0
2017-Oct-07 18:40N 51°53' E 003°21'212.2
2017-Oct-07 18:28N 51°50' E 003°20'511.6
2017-Oct-07 18:00N 51°45' E 003°17'5 9.0
2017-Oct-07 17:28N 51°41' E 003°19'613.3
2017-Oct-07 17:00N 51°35' E 003°24'714.0
2017-Oct-07 16:30N 51°29' E 003°30'5 9.5
2017-Oct-07 16:00N 51°26' E 003°35'2 3.5
2017-Oct-07 15:30N 51°26' E 003°37'4 7.1
2017-Oct-07 15:01N 51°25' E 003°43'611.5
2017-Oct-07 14:30N 51°21' E 003°49'1 1.6
2017-Oct-07 13:59N 51°20' E 003°49'3 6.0
2017-Oct-07 13:30N 51°17' E 003°50'1 1.6
2017-Oct-07 13:00N 51°16' E 003°50'0 0.0
2017-Oct-07 12:30N 51°16' E 003°50'0 0.0
2017-Oct-07 11:57N 51°16' E 003°50'0 0.3
2017-Oct-07 11:27N 51°17' E 003°50'0 0.1
2017-Oct-07 10:57N 51°16' E 003°50'0 0.0
2017-Oct-07 10:27N 51°16' E 003°50'0 0.0
2017-Oct-07 09:57N 51°16' E 003°50'0 0.0
2017-Oct-07 09:27N 51°16' E 003°50'  
Track history (hours):
 
Tides and Currents Weather Stations Pressure Air Temp Water Temp Dewpoint Dewpoint Depression Visibility Wind Speed Wind Dir Waves Ship Positions

Arklow Vale

Last reported at 2017-Oct-17 09:21 UTC. Time now 2017-Oct-17 18:58 UTC.
Position N 54°37' W 005°54'.

Length 87 m; draft 5.9 m.

Type: Cargo ship. MMSI: 244750645.

Date/timePositionNaut miles runAvg speedWind from/ knotsBaromVisibWave heightAir tempDewpointWater temp
2017-Oct-17 09:21N 54°37' W 005°54'0 0.0
2017-Oct-17 01:15N 54°37' W 005°54'0 0.0
2017-Oct-17 00:39N 54°37' W 005°54'0 0.0
2017-Oct-17 00:15N 54°37' W 005°54'0 0.0
2017-Oct-16 22:27N 54°37' W 005°54'0 0.0
2017-Oct-16 12:27N 54°37' W 005°54'0 0.0
2017-Oct-16 06:27N 54°37' W 005°54'0 0.0
2017-Oct-16 04:03N 54°37' W 005°54'0 0.0
2017-Oct-16 03:51N 54°37' W 005°54'0 0.0
2017-Oct-16 03:27N 54°37' W 005°54'0 0.0
2017-Oct-16 01:09N 54°37' W 005°54'0 0.0
2017-Oct-15 16:21N 54°37' W 005°54'0 0.0
2017-Oct-15 15:57N 54°37' W 005°54'0 0.0
2017-Oct-15 13:09N 54°37' W 005°54'0 0.0
2017-Oct-15 12:57N 54°37' W 005°54'0 0.0
2017-Oct-15 12:27N 54°37' W 005°54'0 0.0
2017-Oct-15 11:45N 54°37' W 005°54'0 0.0
2017-Oct-15 11:27N 54°37' W 005°54'0 0.0
2017-Oct-15 09:09N 54°37' W 005°54'0 0.0
2017-Oct-15 08:57N 54°37' W 005°54'0 0.0
2017-Oct-15 08:29N 54°37' W 005°54'0 0.2
2017-Oct-15 08:00N 54°37' W 005°54'4 7.8
2017-Oct-15 07:30N 54°40' W 005°50'510.1
2017-Oct-15 07:00N 54°43' W 005°43'3 5.3
2017-Oct-15 06:30N 54°45' W 005°40'4 8.0
2017-Oct-15 06:00N 54°49' W 005°39'4 8.4
2017-Oct-15 05:30N 54°53' W 005°40'4 8.9
2017-Oct-15 05:00N 54°57' W 005°42'1210.3
2017-Oct-15 03:52N 55°08' W 005°52'411.2
2017-Oct-15 03:30N 55°11' W 005°56'510.8
2017-Oct-15 03:00N 55°16' W 006°01'510.1
2017-Oct-15 02:30N 55°20' W 006°06'5 9.6
2017-Oct-15 02:00N 55°22' W 006°13'5 9.9
2017-Oct-15 01:30N 55°25' W 006°20'611.1
2017-Oct-15 01:00N 55°29' W 006°26'510.2
2017-Oct-15 00:30N 55°34' W 006°31'5 9.6
2017-Oct-15 00:00N 55°38' W 006°35'4 8.9
2017-Oct-14 23:30N 55°42' W 006°39'5 9.1
2017-Oct-14 23:00N 55°46' W 006°43'5 9.5
2017-Oct-14 22:30N 55°50' W 006°48'5 9.6
2017-Oct-14 22:00N 55°53' W 006°54'186 8.2
2017-Oct-13 23:24N 58°40' W 004°22'4 8.8
2017-Oct-13 22:59N 58°41' W 004°15'4 9.1
2017-Oct-13 22:30N 58°41' W 004°06'5 9.7
2017-Oct-13 22:00N 58°41' W 003°57'5 9.6
2017-Oct-13 21:30N 58°42' W 003°48'510.3
2017-Oct-13 21:00N 58°42' W 003°38'510.9
2017-Oct-13 20:30N 58°42' W 003°27'611.8
2017-Oct-13 20:00N 58°43' W 003°16'612.8
2017-Oct-13 19:30N 58°43' W 003°04'713.2
2017-Oct-13 19:00N 58°43' W 002°51'510.3
2017-Oct-13 18:30N 58°42' W 002°41'267 8.9
2017-Oct-12 12:29N 58°04' E 005°44'4 8.3
2017-Oct-12 12:00N 58°04' E 005°51'4 8.4
2017-Oct-12 11:30N 58°04' E 005°59'5 9.1
2017-Oct-12 11:00N 58°02' E 006°07'5 9.4
2017-Oct-12 10:30N 57°60' E 006°15'4 9.1
2017-Oct-12 10:00N 57°58' E 006°22'4 8.6
2017-Oct-12 09:30N 57°56' E 006°30'4 8.4
2017-Oct-12 09:00N 57°56' E 006°38'4 8.6
2017-Oct-12 08:30N 57°56' E 006°46'4 8.9
2017-Oct-12 08:00N 57°56' E 006°54'5 9.1
2017-Oct-12 07:30N 57°56' E 007°03'5 9.7
2017-Oct-12 07:00N 57°55' E 007°12'5 9.7
2017-Oct-12 06:30N 57°55' E 007°21'5 9.5
2017-Oct-12 06:00N 57°54' E 007°30'5 9.3
2017-Oct-12 05:30N 57°55' E 007°39'5 9.4
2017-Oct-12 05:00N 57°56' E 007°47'5 9.5
2017-Oct-12 04:30N 57°58' E 007°56'5 9.4
2017-Oct-12 04:00N 57°60' E 008°04'5 9.4
2017-Oct-12 03:30N 58°02' E 008°12'5 9.5
2017-Oct-12 03:00N 58°04' E 008°19'5 9.1
2017-Oct-12 02:30N 58°07' E 008°25'5 9.5
2017-Oct-12 02:00N 58°11' E 008°32'5 9.3
2017-Oct-12 01:30N 58°14' E 008°39'5 9.1
2017-Oct-12 01:00N 58°17' E 008°45'5 9.4
2017-Oct-12 00:30N 58°20' E 008°52'5 9.2
2017-Oct-12 00:00N 58°23' E 008°59'5 9.7
2017-Oct-11 23:30N 58°27' E 009°05'510.7
2017-Oct-11 23:00N 58°31' E 009°11'611.1
2017-Oct-11 22:30N 58°35' E 009°18'611.4
2017-Oct-11 22:00N 58°39' E 009°25'611.4
2017-Oct-11 21:30N 58°44' E 009°32'611.3
2017-Oct-11 21:00N 58°48' E 009°38'611.2
2017-Oct-11 20:30N 58°53' E 009°44'611.0
2017-Oct-11 20:00N 58°58' E 009°47'4 8.8
2017-Oct-11 19:30N 59°02' E 009°43'4 8.8
2017-Oct-11 19:00N 59°06' E 009°38'1 2.6
2017-Oct-11 18:30N 59°07' E 009°37'0 0.0
2017-Oct-11 18:00N 59°07' E 009°37'0 0.0
2017-Oct-11 17:30N 59°07' E 009°37'0 0.0
2017-Oct-11 17:00N 59°07' E 009°37'0 0.0
2017-Oct-11 00:00N 59°07' E 009°37'0 0.0
2017-Oct-10 23:30N 59°07' E 009°37'0 0.0
2017-Oct-10 23:00N 59°07' E 009°37'0 0.0
2017-Oct-10 22:29N 59°07' E 009°37'0 0.0
2017-Oct-10 22:00N 59°07' E 009°37'0 0.0
2017-Oct-10 21:30N 59°07' E 009°37'0 0.0
2017-Oct-10 21:00N 59°07' E 009°37'0 0.0
2017-Oct-10 20:30N 59°07' E 009°37'0 0.0
2017-Oct-10 20:00N 59°07' E 009°37'0 0.0
2017-Oct-10 19:30N 59°07' E 009°37'0 0.0
2017-Oct-10 19:00N 59°07' E 009°37'0 0.0
2017-Oct-10 18:29N 59°07' E 009°37'0 0.0
2017-Oct-10 18:00N 59°07' E 009°37'0 0.0
2017-Oct-10 17:30N 59°07' E 009°37'0 0.0
2017-Oct-10 16:59N 59°07' E 009°37'0 0.2
2017-Oct-10 16:30N 59°07' E 009°37'0 0.0
2017-Oct-10 16:00N 59°07' E 009°37'0 0.0
2017-Oct-10 15:30N 59°07' E 009°37'0 0.0
2017-Oct-10 14:59N 59°07' E 009°37'0 0.0
2017-Oct-10 14:00N 59°07' E 009°37'0 0.0
2017-Oct-10 13:30N 59°07' E 009°37'0 0.0
2017-Oct-10 13:00N 59°07' E 009°37'0 0.0
2017-Oct-10 12:30N 59°07' E 009°37'0 0.0
2017-Oct-10 12:00N 59°07' E 009°37'0 0.0
2017-Oct-10 11:30N 59°07' E 009°37'0 0.0
2017-Oct-10 11:00N 59°07' E 009°37'0 0.0
2017-Oct-10 10:30N 59°07' E 009°37'0 0.0
2017-Oct-10 10:00N 59°07' E 009°37'0 0.0
2017-Oct-10 09:30N 59°07' E 009°37'0 0.0
2017-Oct-10 09:00N 59°07' E 009°37'0 0.0
2017-Oct-10 08:29N 59°07' E 009°37'0 0.0
2017-Oct-10 08:00N 59°07' E 009°37'0 0.0
2017-Oct-10 07:29N 59°07' E 009°37'0 0.0
2017-Oct-10 07:00N 59°07' E 009°37'0 0.0
2017-Oct-10 06:30N 59°07' E 009°37'0 0.0
2017-Oct-10 05:59N 59°07' E 009°37'0 0.0
2017-Oct-10 05:30N 59°07' E 009°37'0 0.0
2017-Oct-10 04:57N 59°07' E 009°37'0 0.0
2017-Oct-10 04:30N 59°07' E 009°37'0 0.0
2017-Oct-10 04:00N 59°07' E 009°37'0 0.0
2017-Oct-10 03:30N 59°07' E 009°37'0 0.0
2017-Oct-10 03:00N 59°07' E 009°37'0 0.0
2017-Oct-10 02:30N 59°07' E 009°37'0 0.0
2017-Oct-10 02:00N 59°07' E 009°37'0 0.0
2017-Oct-10 01:30N 59°07' E 009°37'0 0.0
2017-Oct-10 01:00N 59°07' E 009°37'0 0.0
2017-Oct-10 00:30N 59°07' E 009°37'0 0.0
2017-Oct-10 00:00N 59°07' E 009°37'0 0.0
2017-Oct-09 23:30N 59°07' E 009°37'0 0.0
2017-Oct-09 23:00N 59°07' E 009°37'0 0.0
2017-Oct-09 22:30N 59°07' E 009°37'0 0.0
2017-Oct-09 22:00N 59°07' E 009°37'0 0.0
2017-Oct-09 21:30N 59°07' E 009°37'0 0.0
2017-Oct-09 21:00N 59°07' E 009°37'0 0.0
2017-Oct-09 20:30N 59°07' E 009°37'0 0.0
2017-Oct-09 19:59N 59°07' E 009°37'0 0.0
2017-Oct-09 19:30N 59°07' E 009°37'0 0.0
2017-Oct-09 19:00N 59°07' E 009°37'0 0.0
2017-Oct-09 18:30N 59°07' E 009°37'0 0.0
2017-Oct-09 18:00N 59°07' E 009°37'0 0.0
2017-Oct-09 17:30N 59°07' E 009°37'0 0.0
2017-Oct-09 17:00N 59°07' E 009°37'0 0.0
2017-Oct-09 16:30N 59°07' E 009°37'0 0.0
2017-Oct-09 16:00N 59°07' E 009°37'0 0.0
2017-Oct-09 15:30N 59°07' E 009°37'0 0.0
2017-Oct-09 14:59N 59°07' E 009°37'0 0.0
2017-Oct-09 14:30N 59°07' E 009°37'0 0.0
2017-Oct-09 14:00N 59°07' E 009°37'0 0.0
2017-Oct-09 13:30N 59°07' E 009°37'2 4.9
2017-Oct-09 13:00N 59°05' E 009°38'4 9.1
2017-Oct-09 12:30N 59°02' E 009°44'510.1
2017-Oct-09 11:59N 58°57' E 009°47'612.8
2017-Oct-09 11:30N 58°51' E 009°41'713.2
2017-Oct-09 11:00N 58°46' E 009°33'612.6
2017-Oct-09 10:29N 58°41' E 009°26'611.8
2017-Oct-09 10:00N 58°36' E 009°21'611.2
2017-Oct-09 09:30N 58°31' E 009°15'511.0
2017-Oct-09 09:00N 58°26' E 009°10'611.8
2017-Oct-09 08:30N 58°21' E 009°04'611.6
2017-Oct-09 08:00N 58°17' E 008°58'611.6
2017-Oct-09 07:30N 58°12' E 008°51'611.5
2017-Oct-09 07:00N 58°08' E 008°44'611.5
2017-Oct-09 06:30N 58°03' E 008°39'611.9
2017-Oct-09 06:00N 57°57' E 008°35'4312.7
2017-Oct-09 02:38N 57°17' E 008°06'212.5
2017-Oct-09 02:29N 57°16' E 008°04'612.5
2017-Oct-09 01:59N 57°10' E 008°00'612.3
2017-Oct-09 01:28N 57°04' E 007°56'612.3
2017-Oct-09 01:00N 56°59' E 007°52'25811.7
2017-Oct-08 03:00N 53°08' E 004°28'511.2
2017-Oct-08 02:30N 53°03' E 004°23'510.9
2017-Oct-08 02:00N 52°59' E 004°19'510.7
2017-Oct-08 01:30N 52°54' E 004°15'510.6
2017-Oct-08 01:00N 52°49' E 004°11'510.9
2017-Oct-08 00:30N 52°45' E 004°05'510.8
2017-Oct-08 00:00N 52°41' E 003°59'5410.0
2017-Oct-07 18:40N 51°53' E 003°21'212.2
2017-Oct-07 18:28N 51°50' E 003°20'511.6
2017-Oct-07 18:00N 51°45' E 003°17'5 9.0
2017-Oct-07 17:28N 51°41' E 003°19'613.3
2017-Oct-07 17:00N 51°35' E 003°24'714.0
2017-Oct-07 16:30N 51°29' E 003°30'5 9.5
2017-Oct-07 16:00N 51°26' E 003°35'2 3.5
2017-Oct-07 15:30N 51°26' E 003°37'4 7.1
2017-Oct-07 15:01N 51°25' E 003°43'611.5
2017-Oct-07 14:30N 51°21' E 003°49'1 1.6
2017-Oct-07 13:59N 51°20' E 003°49'3 6.0
2017-Oct-07 13:30N 51°17' E 003°50'1 1.6
2017-Oct-07 13:00N 51°16' E 003°50'0 0.0
2017-Oct-07 12:30N 51°16' E 003°50'0 0.0
2017-Oct-07 11:57N 51°16' E 003°50'0 0.3
2017-Oct-07 11:27N 51°17' E 003°50'0 0.1
2017-Oct-07 10:57N 51°16' E 003°50'0 0.0
2017-Oct-07 10:27N 51°16' E 003°50'0 0.0
2017-Oct-07 09:57N 51°16' E 003°50'0 0.0
2017-Oct-07 09:27N 51°16' E 003°50'  

Dump ship's entire track history